createdAt,value
2022-11-05T00:05:11.990Z,10.22
2022-11-05T00:10:21.988Z,10.31
2022-11-05T00:15:41.769Z,10.36
2022-11-05T00:20:43.258Z,10.34
2022-11-05T00:25:53.958Z,10.38
2022-11-05T00:31:01.160Z,10.40
2022-11-05T00:36:03.635Z,10.41
2022-11-05T00:41:05.307Z,10.39
2022-11-05T00:46:06.829Z,10.36
2022-11-05T00:51:08.469Z,10.30
2022-11-05T00:56:10.092Z,10.30
2022-11-05T01:01:12.005Z,10.28
2022-11-05T01:06:16.032Z,10.33
2022-11-05T01:11:35.241Z,10.31
2022-11-05T01:16:38.349Z,10.28
2022-11-05T01:21:39.874Z,10.35
2022-11-05T01:26:41.355Z,10.39
2022-11-05T01:31:42.838Z,10.36
2022-11-05T01:36:44.474Z,10.40
2022-11-05T01:41:46.762Z,10.42
2022-11-05T01:46:48.293Z,10.44
2022-11-05T01:51:51.364Z,10.47
2022-11-05T01:56:59.916Z,10.54
2022-11-05T02:02:03.453Z,10.61
2022-11-05T02:07:07.246Z,10.68
2022-11-05T02:12:10.644Z,10.71
2022-11-05T02:17:36.526Z,10.71
2022-11-05T02:22:53.199Z,10.72
2022-11-05T02:28:05.771Z,10.73
2022-11-05T02:33:36.084Z,10.73
2022-11-05T02:38:46.050Z,10.71
2022-11-05T02:44:02.710Z,10.69
2022-11-05T02:49:17.226Z,10.69
2022-11-05T02:54:26.914Z,10.67
2022-11-05T02:59:28.637Z,10.68
2022-11-05T03:04:32.142Z,10.72
2022-11-05T03:09:51.836Z,10.73
2022-11-05T03:14:59.424Z,10.80
2022-11-05T03:20:40.004Z,10.80
2022-11-05T03:25:47.702Z,10.79
2022-11-05T03:30:52.409Z,10.79
2022-11-05T03:36:00.458Z,10.78
2022-11-05T03:41:07.453Z,10.76
2022-11-05T03:46:31.951Z,10.72
2022-11-05T03:51:43.113Z,10.71
2022-11-05T03:57:05.610Z,10.67
2022-11-05T04:02:07.330Z,10.65
2022-11-05T04:07:29.047Z,10.59
2022-11-05T04:12:49.133Z,10.65
2022-11-05T04:17:50.715Z,10.69
2022-11-05T04:23:21.003Z,10.67
2022-11-05T04:28:42.472Z,10.68
2022-11-05T04:33:43.957Z,10.67
2022-11-05T04:38:45.457Z,10.66
2022-11-05T04:43:46.927Z,10.63
2022-11-05T04:48:48.505Z,10.60
2022-11-05T04:53:49.963Z,10.59
2022-11-05T04:58:51.900Z,10.60
2022-11-05T05:03:54.552Z,10.66
2022-11-05T05:08:55.994Z,10.71
2022-11-05T05:13:57.693Z,10.67
2022-11-05T05:18:59.154Z,10.67
2022-11-05T05:24:00.838Z,10.68
2022-11-05T05:29:03.584Z,10.69
2022-11-05T05:34:06.583Z,10.68
2022-11-05T05:39:11.087Z,10.64
2022-11-05T05:44:12.735Z,10.60
2022-11-05T05:49:14.422Z,10.56
2022-11-05T05:54:16.326Z,10.50
2022-11-05T05:59:17.874Z,10.47
2022-11-05T06:04:19.404Z,10.43
2022-11-05T06:09:20.906Z,10.43
2022-11-05T06:14:22.387Z,10.42
2022-11-05T06:19:23.938Z,10.45
2022-11-05T06:24:25.452Z,10.47
2022-11-05T06:29:26.887Z,10.47
2022-11-05T06:34:28.413Z,10.47
2022-11-05T06:39:29.852Z,10.49
2022-11-05T06:44:31.350Z,10.49
2022-11-05T06:49:32.831Z,10.47
2022-11-05T06:54:34.312Z,10.46
2022-11-05T06:59:37.048Z,10.47
2022-11-05T07:04:38.543Z,10.50
2022-11-05T07:09:43.072Z,10.47
2022-11-05T07:14:44.542Z,10.52
2022-11-05T07:19:45.953Z,10.56
2022-11-05T07:24:48.084Z,10.59
2022-11-05T07:29:49.600Z,10.59
2022-11-05T07:34:51.119Z,10.63
2022-11-05T07:39:52.584Z,10.71
2022-11-05T07:44:54.051Z,10.85
2022-11-05T07:49:55.535Z,11.08
2022-11-05T07:54:56.994Z,11.22
2022-11-05T07:59:58.506Z,11.31
2022-11-05T08:04:59.979Z,11.26
2022-11-05T08:10:03.596Z,11.19
2022-11-05T08:15:05.579Z,11.20
2022-11-05T08:20:07.415Z,11.18
2022-11-05T08:25:09.208Z,11.13
2022-11-05T08:30:11.092Z,11.12
2022-11-05T08:35:12.559Z,11.13
2022-11-05T08:40:14.205Z,11.18
2022-11-05T08:45:15.748Z,11.18
2022-11-05T08:50:17.568Z,11.31
2022-11-05T08:55:19.175Z,11.43
2022-11-05T09:00:20.729Z,11.65
2022-11-05T09:05:22.285Z,11.66
2022-11-05T09:10:24.272Z,11.67
2022-11-05T09:15:25.795Z,11.76
2022-11-05T09:20:27.453Z,11.98
2022-11-05T09:25:29.082Z,12.31
2022-11-05T09:30:30.580Z,12.53
2022-11-05T09:35:32.119Z,12.70
2022-11-05T09:40:44.149Z,12.70
2022-11-05T09:45:48.539Z,12.81
2022-11-05T09:50:53.281Z,12.91
2022-11-05T09:55:57.443Z,12.79
2022-11-05T10:00:59.248Z,12.74
2022-11-05T10:06:09.252Z,12.68
2022-11-05T10:11:18.313Z,12.87
2022-11-05T10:16:39.623Z,13.05
2022-11-05T10:27:04.335Z,13.88
2022-11-05T10:32:07.286Z,13.98
2022-11-05T10:37:10.186Z,13.79
2022-11-05T10:42:38.386Z,13.45
2022-11-05T10:48:01.011Z,13.15
2022-11-05T10:53:15.162Z,13.00
2022-11-05T10:58:16.585Z,13.59
2022-11-05T11:03:36.157Z,14.68
2022-11-05T11:08:38.147Z,14.16
2022-11-05T11:14:04.427Z,14.96
2022-11-05T11:19:31.010Z,15.97
2022-11-05T11:24:45.188Z,15.05
2022-11-05T11:29:51.135Z,14.57
2022-11-05T11:34:58.492Z,14.54
2022-11-05T11:40:29.359Z,14.66
2022-11-05T11:45:45.542Z,14.80
2022-11-05T11:50:48.341Z,14.70
2022-11-05T11:56:18.020Z,14.69
2022-11-05T12:01:48.709Z,14.78
2022-11-05T12:07:26.271Z,14.56
2022-11-05T12:13:01.933Z,14.03
2022-11-05T12:18:19.389Z,13.90
2022-11-05T12:23:35.920Z,14.27
2022-11-05T12:29:20.120Z,14.18
2022-11-05T12:35:05.395Z,13.95
2022-11-05T12:40:12.945Z,13.94
2022-11-05T12:45:43.220Z,13.69
2022-11-05T12:51:03.702Z,13.46
2022-11-05T12:56:21.415Z,13.46
2022-11-05T13:01:33.451Z,13.50
2022-11-05T13:06:40.974Z,13.46
2022-11-05T13:11:45.992Z,13.27
2022-11-05T13:16:59.875Z,13.11
2022-11-05T13:22:12.373Z,13.01
2022-11-05T13:27:36.937Z,12.92
2022-11-05T13:32:47.045Z,12.93
2022-11-05T13:38:17.620Z,13.08
2022-11-05T13:43:40.126Z,13.28
2022-11-05T13:48:50.798Z,13.42
2022-11-05T13:54:14.123Z,13.35
2022-11-05T13:59:36.964Z,13.11
2022-11-05T14:04:47.339Z,12.94
2022-11-05T14:09:55.826Z,12.89
2022-11-05T14:15:03.962Z,12.79
2022-11-05T14:20:05.432Z,12.73
2022-11-05T14:25:19.210Z,12.63
2022-11-05T14:30:48.944Z,12.58
2022-11-05T14:35:51.613Z,12.50
2022-11-05T14:41:02.457Z,12.36
2022-11-05T14:46:06.428Z,12.29
2022-11-05T14:51:44.215Z,12.17
2022-11-05T14:56:56.507Z,12.01
2022-11-05T15:02:15.262Z,11.83
2022-11-05T15:07:22.533Z,11.74
2022-11-05T15:12:37.333Z,11.76
2022-11-05T15:17:47.993Z,11.78
2022-11-05T15:22:51.809Z,11.77
2022-11-05T15:28:02.969Z,11.69
2022-11-05T15:33:31.795Z,11.56
2022-11-05T15:38:35.179Z,11.48
2022-11-05T15:43:47.732Z,11.40
2022-11-05T15:49:04.978Z,11.30
2022-11-05T15:54:29.014Z,11.17
2022-11-05T15:59:29.676Z,10.99
2022-11-05T16:04:34.571Z,10.86
2022-11-05T16:09:40.055Z,10.73
2022-11-05T16:14:42.329Z,10.61
2022-11-05T16:19:45.459Z,10.47
2022-11-05T16:24:47.349Z,10.33
2022-11-05T16:29:48.762Z,10.15
2022-11-05T16:34:59.208Z,9.96
2022-11-05T16:40:01.912Z,9.82
2022-11-05T16:45:04.315Z,9.72
2022-11-05T16:50:17.835Z,9.62
2022-11-05T16:55:19.972Z,9.49
2022-11-05T17:00:23.016Z,9.37
2022-11-05T17:05:29.723Z,9.25
2022-11-05T17:10:31.434Z,9.12
2022-11-05T17:15:35.684Z,9.03
2022-11-05T17:20:41.640Z,8.91
2022-11-05T17:25:45.701Z,8.78
2022-11-05T17:30:52.942Z,8.67
2022-11-05T17:35:55.323Z,8.56
2022-11-05T17:40:56.794Z,8.42
2022-11-05T17:46:04.122Z,8.29
2022-11-05T17:51:10.101Z,8.16
2022-11-05T17:56:13.476Z,8.04
2022-11-05T18:01:31.774Z,7.96
2022-11-05T18:06:33.344Z,7.88
2022-11-05T18:11:36.201Z,7.79
2022-11-05T18:16:38.095Z,7.71
2022-11-05T18:21:39.568Z,7.64
2022-11-05T18:26:42.087Z,7.59
2022-11-05T18:31:43.734Z,7.54
2022-11-05T18:36:45.607Z,7.49
2022-11-05T18:41:47.460Z,7.50
2022-11-05T18:46:58.170Z,7.56
2022-11-05T18:52:00.080Z,7.64
2022-11-05T18:57:01.632Z,7.69
2022-11-05T19:02:03.413Z,7.73
2022-11-05T19:07:06.394Z,7.81
2022-11-05T19:12:08.115Z,7.88
2022-11-05T19:17:09.648Z,7.94
2022-11-05T19:22:11.453Z,7.98
2022-11-05T19:27:12.902Z,7.98
2022-11-05T19:32:14.619Z,7.87
2022-11-05T19:37:16.078Z,7.77
2022-11-05T19:42:17.530Z,7.65
2022-11-05T19:47:18.953Z,7.59
2022-11-05T19:52:20.527Z,7.49
2022-11-05T19:57:22.068Z,7.27
2022-11-05T20:02:23.614Z,7.05
2022-11-05T20:07:25.214Z,6.85
2022-11-05T20:12:26.700Z,6.72
2022-11-05T20:17:28.264Z,6.61
2022-11-05T20:22:29.780Z,6.49
2022-11-05T20:27:31.224Z,6.47
2022-11-05T20:32:32.728Z,6.44
2022-11-05T20:37:34.495Z,6.42
2022-11-05T20:42:36.958Z,6.35
2022-11-05T20:47:38.587Z,6.35
2022-11-05T20:52:40.424Z,6.32
2022-11-05T20:57:41.958Z,6.25
2022-11-05T21:02:43.577Z,6.15
2022-11-05T21:07:45.228Z,6.06
2022-11-05T21:12:47.250Z,5.99
2022-11-05T21:17:50.321Z,5.91
2022-11-05T21:22:51.755Z,5.84
2022-11-05T21:27:53.251Z,5.77
2022-11-05T21:32:54.685Z,5.73
2022-11-05T21:37:56.283Z,5.69
2022-11-05T21:42:57.807Z,5.67
2022-11-05T21:47:59.521Z,5.65
2022-11-05T21:53:19.283Z,5.60
2022-11-05T21:58:39.849Z,5.53
2022-11-05T22:03:41.350Z,5.51
2022-11-05T22:08:42.836Z,5.51
2022-11-05T22:13:44.343Z,5.56
2022-11-05T22:18:45.834Z,5.64
2022-11-05T22:23:47.312Z,5.71
2022-11-05T22:28:48.833Z,5.77
2022-11-05T22:33:50.508Z,5.80
2022-11-05T22:38:52.091Z,5.79
2022-11-05T22:43:53.601Z,5.69
2022-11-05T22:48:58.682Z,5.60
2022-11-05T22:54:00.750Z,5.58
2022-11-05T22:59:03.340Z,5.57
2022-11-05T23:04:04.913Z,5.53
2022-11-05T23:09:31.465Z,5.43
2022-11-05T23:14:33.245Z,5.33
2022-11-05T23:19:53.152Z,5.22
2022-11-05T23:24:54.667Z,5.17
2022-11-05T23:30:00.441Z,5.11
2022-11-05T23:35:02.020Z,5.08
2022-11-05T23:40:06.003Z,5.09
2022-11-05T23:45:26.991Z,5.02
2022-11-05T23:50:33.103Z,4.99
2022-11-05T23:55:38.012Z,4.99
